Time;durP1;ratioP1;P1;durP2;ratioP2;P2;SDS_P1;SDS_P2;PMS_P1;PMS_P2;Temp;Humidity;BMP_temperature;BMP_pressure;BME280_temperature;BME280_humidity;BME280_pressure;Samples;Min_cycle;Max_cycle;Signal;HPM_P1;HPM_P2
2024/01/08 00:03:44;;;;;;;3.13;2.83;;;2.20;39.90;;;;;;10359931;28;20258;-72
2024/01/08 00:08:47;;;;;;;2.97;2.77;;;2.20;40.20;;;;;;10360751;28;20226;-72
2024/01/08 00:13:52;;;;;;;3.10;2.90;;;2.10;40.00;;;;;;10355180;28;20235;-72
2024/01/08 00:18:55;;;;;;;3.20;2.90;;;2.10;40.00;;;;;;10367993;28;20230;-72
2024/01/08 00:23:58;;;;;;;2.87;2.67;;;2.10;40.00;;;;;;10361507;28;20237;-72
2024/01/08 00:29:03;;;;;;;2.80;2.60;;;2.10;39.90;;;;;;10365302;28;20238;-72
2024/01/08 00:34:06;;;;;;;3.00;2.60;;;2.00;39.70;;;;;;10356701;28;20233;-72
2024/01/08 00:39:10;;;;;;;2.83;2.63;;;2.00;39.90;;;;;;10359226;28;20266;-72
2024/01/08 00:44:15;;;;;;;2.53;2.33;;;2.10;39.90;;;;;;10362303;28;20695;-72
2024/01/08 00:49:18;;;;;;;3.00;2.70;;;2.00;39.80;;;;;;10367793;28;20321;-72
2024/01/08 00:54:21;;;;;;;2.60;2.40;;;2.00;39.90;;;;;;10363158;28;20922;-72
2024/01/08 00:59:26;;;;;;;2.70;2.50;;;2.10;39.90;;;;;;10367787;28;20222;-72
2024/01/08 01:04:29;;;;;;;2.60;2.40;;;1.90;39.50;;;;;;10365734;28;20218;-72
2024/01/08 01:09:32;;;;;;;2.40;2.30;;;1.90;39.70;;;;;;10360337;28;20243;-72
2024/01/08 01:14:37;;;;;;;2.70;2.20;;;1.90;39.80;;;;;;10360192;28;20318;-72
2024/01/08 01:19:40;;;;;;;2.53;2.33;;;1.90;39.50;;;;;;10366386;28;20234;-72
2024/01/08 01:24:44;;;;;;;2.93;2.60;;;1.90;39.70;;;;;;10362340;28;21008;-72
2024/01/08 01:29:48;;;;;;;2.33;2.13;;;1.80;39.70;;;;;;10362813;28;20724;-72
2024/01/08 01:34:52;;;;;;;2.53;2.33;;;1.80;39.70;;;;;;10361649;28;20237;-72
2024/01/08 01:39:55;;;;;;;2.60;2.40;;;1.80;40.00;;;;;;10361087;28;20769;-73
2024/01/08 01:44:59;;;;;;;2.40;2.20;;;1.80;40.00;;;;;;10365858;28;20697;-73
2024/01/08 01:50:04;;;;;;;2.70;2.50;;;1.80;39.90;;;;;;10365073;28;20249;-73
2024/01/08 01:55:08;;;;;;;2.27;2.17;;;1.80;40.00;;;;;;10362572;28;20226;-73
2024/01/08 02:00:14;;;;;;;2.43;2.23;;;1.80;39.80;;;;;;10360337;28;20316;-72
2024/01/08 02:05:18;;;;;;;2.50;2.30;;;1.80;40.00;;;;;;10363436;28;20240;-73
2024/01/08 02:10:22;;;;;;;2.63;2.33;;;1.80;40.10;;;;;;10362837;28;20244;-73
2024/01/08 02:15:27;;;;;;;2.40;2.20;;;1.80;40.10;;;;;;10364170;28;20234;-72
2024/01/08 02:20:30;;;;;;;2.13;2.03;;;1.90;39.90;;;;;;10363445;28;20261;-72
2024/01/08 02:25:36;;;;;;;2.60;2.40;;;1.80;40.00;;;;;;10355864;28;20298;-73
2024/01/08 02:30:39;;;;;;;2.10;2.00;;;1.90;40.00;;;;;;10367428;28;20837;-73
2024/01/08 02:35:43;;;;;;;2.60;2.23;;;1.80;40.10;;;;;;10366598;28;20285;-73
2024/01/08 02:40:48;;;;;;;2.50;2.30;;;1.90;40.20;;;;;;10358350;28;20226;-73
2024/01/08 02:45:51;;;;;;;2.40;2.20;;;1.90;40.10;;;;;;10352758;28;20301;-72
2024/01/08 02:50:54;;;;;;;2.13;2.00;;;1.90;40.20;;;;;;10351556;28;20269;-73
2024/01/08 02:55:58;;;;;;;2.57;2.37;;;1.90;40.10;;;;;;10365652;28;20217;-72
2024/01/08 03:01:02;;;;;;;2.77;2.27;;;2.00;39.90;;;;;;10367057;28;20226;-72
2024/01/08 03:06:06;;;;;;;2.20;1.97;;;1.90;40.00;;;;;;10361476;28;20222;-72
2024/01/08 03:11:11;;;;;;;2.20;2.00;;;1.90;40.00;;;;;;10361474;28;20314;-72
2024/01/08 03:16:15;;;;;;;2.50;2.30;;;1.90;40.00;;;;;;10354084;28;20219;-72
2024/01/08 03:21:18;;;;;;;2.10;2.00;;;1.90;40.00;;;;;;10359912;28;20308;-72
2024/01/08 03:26:22;;;;;;;2.27;2.07;;;1.90;40.20;;;;;;10362133;28;20268;-72
2024/01/08 03:31:26;;;;;;;2.30;2.10;;;1.90;40.20;;;;;;10357386;28;20240;-72
2024/01/08 03:36:30;;;;;;;2.90;2.60;;;2.00;40.00;;;;;;10359603;28;20672;-72
2024/01/08 03:41:34;;;;;;;2.63;2.43;;;1.90;39.90;;;;;;10343645;28;20230;-72
2024/01/08 03:46:38;;;;;;;2.30;2.10;;;1.90;39.70;;;;;;10368475;28;20613;-72
2024/01/08 03:51:42;;;;;;;2.47;2.20;;;2.00;39.90;;;;;;10368138;28;20268;-72
2024/01/08 03:56:46;;;;;;;2.40;2.20;;;1.90;39.80;;;;;;10370174;28;20218;-72
2024/01/08 04:01:50;;;;;;;2.60;2.40;;;1.80;39.70;;;;;;10359197;28;21017;-72
2024/01/08 04:06:54;;;;;;;2.50;2.30;;;1.90;39.80;;;;;;10367650;28;20230;-72
2024/01/08 04:11:58;;;;;;;2.60;2.40;;;1.80;39.90;;;;;;10370028;28;20229;-71
2024/01/08 04:17:02;;;;;;;2.50;2.20;;;1.80;40.00;;;;;;10369582;28;20313;-72
2024/01/08 04:22:05;;;;;;;2.13;1.97;;;1.70;40.00;;;;;;10367116;28;20222;-71
2024/01/08 04:27:10;;;;;;;2.60;2.40;;;1.70;40.00;;;;;;10368032;28;20226;-72
2024/01/08 04:32:13;;;;;;;2.43;2.23;;;1.70;39.80;;;;;;10365593;28;20314;-72
2024/01/08 04:37:16;;;;;;;2.17;2.07;;;1.80;40.00;;;;;;10369629;28;20305;-72
2024/01/08 04:42:21;;;;;;;2.67;2.33;;;1.70;39.90;;;;;;10368494;28;20314;-72
2024/01/08 04:47:24;;;;;;;2.57;2.30;;;1.70;39.80;;;;;;10368964;28;20230;-72
2024/01/08 04:52:27;;;;;;;2.43;2.23;;;1.70;40.00;;;;;;10358116;28;20226;-71
2024/01/08 04:57:32;;;;;;;2.30;2.10;;;1.70;40.00;;;;;;10362464;28;20320;-72
2024/01/08 05:02:35;;;;;;;2.37;2.17;;;1.70;39.80;;;;;;10361916;28;20307;-72
2024/01/08 05:07:39;;;;;;;2.50;2.30;;;1.70;39.80;;;;;;10368202;28;20238;-72
2024/01/08 05:12:43;;;;;;;2.27;2.17;;;1.70;39.80;;;;;;10364654;28;20330;-72
2024/01/08 05:17:46;;;;;;;2.60;2.40;;;1.70;39.80;;;;;;10364253;28;20312;-71
2024/01/08 05:22:50;;;;;;;2.43;2.23;;;1.70;39.90;;;;;;10365173;28;20246;-72
2024/01/08 05:27:54;;;;;;;2.73;2.53;;;1.70;40.00;;;;;;10359187;28;20214;-72
2024/01/08 05:32:57;;;;;;;2.80;2.60;;;1.70;40.00;;;;;;10366305;28;20222;-72
2024/01/08 05:38:01;;;;;;;2.90;2.67;;;1.70;40.10;;;;;;10366881;28;20309;-72
2024/01/08 05:43:06;;;;;;;3.00;2.70;;;1.70;40.00;;;;;;10366342;28;20226;-72
2024/01/08 05:48:09;;;;;;;2.60;2.40;;;1.80;40.10;;;;;;10366928;28;20288;-72
2024/01/08 05:53:16;;;;;;;2.70;2.50;;;1.80;40.10;;;;;;10364837;28;20229;-72
2024/01/08 05:58:20;;;;;;;2.80;2.60;;;1.90;40.20;;;;;;10364918;28;20229;-72
2024/01/08 06:03:24;;;;;;;2.60;2.40;;;1.90;40.20;;;;;;10364752;28;20313;-74
2024/01/08 06:08:27;;;;;;;2.87;2.67;;;1.90;40.20;;;;;;10365567;28;20226;-74
2024/01/08 06:13:32;;;;;;;2.60;2.40;;;2.00;40.30;;;;;;10362572;28;20238;-77
2024/01/08 06:18:35;;;;;;;2.90;2.70;;;2.00;41.00;;;;;;10363132;28;20234;-74
2024/01/08 06:23:39;;;;;;;3.30;3.00;;;2.00;42.20;;;;;;10362329;28;21118;-74
2024/01/08 06:28:43;;;;;;;3.10;2.80;;;2.20;41.10;;;;;;10363360;28;20237;-74
2024/01/08 06:33:47;;;;;;;2.63;2.43;;;2.20;40.40;;;;;;10361938;28;20241;-74
2024/01/08 06:38:50;;;;;;;3.27;2.97;;;2.20;40.40;;;;;;10365043;28;20241;-74
2024/01/08 06:43:55;;;;;;;2.90;2.60;;;2.30;40.30;;;;;;10364813;28;20321;-74
2024/01/08 06:48:58;;;;;;;2.87;2.63;;;2.20;40.10;;;;;;10364719;28;20701;-74
2024/01/08 06:54:02;;;;;;;3.00;2.80;;;2.10;40.00;;;;;;10364876;28;20693;-74
2024/01/08 06:59:06;;;;;;;3.53;3.07;;;2.10;39.80;;;;;;10358605;28;20225;-74
2024/01/08 07:04:10;;;;;;;3.17;2.87;;;2.00;39.40;;;;;;10361915;28;20241;-74
2024/01/08 07:09:13;;;;;;;3.13;2.83;;;2.00;39.70;;;;;;10358732;28;20752;-74
2024/01/08 07:14:18;;;;;;;3.23;2.93;;;2.00;40.00;;;;;;10357963;28;20268;-74
2024/01/08 07:19:21;;;;;;;3.17;2.87;;;1.90;40.00;;;;;;10358951;28;20234;-74
2024/01/08 07:24:24;;;;;;;3.40;3.10;;;1.90;40.10;;;;;;10360882;28;20795;-74
2024/01/08 07:29:29;;;;;;;3.20;2.90;;;1.90;40.10;;;;;;10363214;28;20230;-73
2024/01/08 07:34:32;;;;;;;3.07;2.87;;;1.90;40.20;;;;;;10363133;28;20649;-73
2024/01/08 07:39:35;;;;;;;2.80;2.60;;;1.80;40.10;;;;;;10362595;28;20867;-72
2024/01/08 07:44:40;;;;;;;2.87;2.67;;;1.80;40.10;;;;;;10364114;28;20284;-72
2024/01/08 07:49:43;;;;;;;3.30;3.00;;;1.90;39.90;;;;;;10364031;28;20782;-72
2024/01/08 07:54:47;;;;;;;3.17;2.97;;;1.80;39.80;;;;;;10367664;28;20232;-72
2024/01/08 07:59:51;;;;;;;3.40;3.10;;;1.90;40.00;;;;;;10363550;28;20926;-72
2024/01/08 08:04:54;;;;;;;3.20;2.90;;;1.90;40.00;;;;;;10363817;28;20242;-72
2024/01/08 08:09:58;;;;;;;3.13;2.83;;;1.90;40.00;;;;;;10363654;28;20237;-72
2024/01/08 08:15:02;;;;;;;3.40;3.10;;;1.90;40.00;;;;;;10363478;28;20229;-72
2024/01/08 08:20:07;;;;;;;3.07;2.77;;;1.80;39.70;;;;;;10363155;28;20312;-72
2024/01/08 08:25:10;;;;;;;3.67;3.37;;;1.80;40.00;;;;;;10363474;28;20631;-72
2024/01/08 08:30:16;;;;;;;3.50;3.13;;;1.80;40.00;;;;;;10360550;28;20257;-72
2024/01/08 08:35:19;;;;;;;3.50;3.20;;;1.80;40.10;;;;;;10365374;28;20245;-72
2024/01/08 08:40:23;;;;;;;4.10;3.60;;;1.90;40.20;;;;;;10370672;28;20799;-72
2024/01/08 08:45:28;;;;;;;3.50;3.20;;;1.90;40.20;;;;;;10370232;28;20226;-73
2024/01/08 08:50:31;;;;;;;3.63;3.33;;;2.00;40.30;;;;;;10368186;28;20308;-73
2024/01/08 08:55:34;;;;;;;4.17;3.77;;;2.00;40.30;;;;;;10361637;28;20238;-75
2024/01/08 09:00:39;;;;;;;3.67;3.20;;;2.10;40.40;;;;;;10361095;28;20230;-74
2024/01/08 09:05:42;;;;;;;4.83;3.70;;;2.00;40.10;;;;;;10361003;28;20312;-73
2024/01/08 09:10:49;;;;;;;3.80;3.40;;;2.10;40.00;;;;;;10365324;28;20768;-74
2024/01/08 09:15:54;;;;;;;4.17;3.87;;;2.10;39.90;;;;;;10366187;28;20230;-73
2024/01/08 09:20:57;;;;;;;4.20;3.80;;;2.10;40.00;;;;;;10368832;28;20237;-73
2024/01/08 09:26:00;;;;;;;4.20;3.80;;;2.10;40.00;;;;;;10370113;28;20234;-73
2024/01/08 09:31:05;;;;;;;4.67;4.10;;;2.10;40.20;;;;;;10360145;28;20724;-73
2024/01/08 09:36:09;;;;;;;4.60;4.20;;;2.20;39.90;;;;;;10368397;28;20281;-73
2024/01/08 09:41:12;;;;;;;4.47;4.07;;;2.20;40.10;;;;;;10372977;28;20269;-73
2024/01/08 09:46:29;;;;;;;4.60;4.20;;;2.20;40.00;;;;;;10365789;28;20341;-73
2024/01/08 09:51:33;;;;;;;4.33;4.03;;;2.30;40.50;;;;;;10364665;28;20742;-74
2024/01/08 09:56:36;;;;;;;4.27;3.87;;;2.40;40.30;;;;;;10367278;28;20238;-73
2024/01/08 10:01:44;;;;;;;4.50;4.10;;;2.40;39.80;;;;;;10374762;28;20238;-74
2024/01/08 10:06:47;;;;;;;4.13;3.83;;;2.40;39.70;;;;;;10364648;28;20717;-75
2024/01/08 10:11:50;;;;;;;5.10;4.60;;;2.40;40.00;;;;;;10366835;28;20685;-73
2024/01/08 10:16:56;;;;;;;5.17;4.67;;;2.40;39.90;;;;;;10367057;28;20309;-72
2024/01/08 10:22:09;;;;;;;5.20;4.53;;;2.40;39.70;;;;;;10363070;28;20258;-72
2024/01/08 10:27:13;;;;;;;4.83;4.33;;;2.50;39.70;;;;;;10376122;28;20230;-72
2024/01/08 10:32:19;;;;;;;4.80;4.40;;;2.40;39.70;;;;;;10371720;28;20309;-73
2024/01/08 10:37:22;;;;;;;5.03;4.53;;;2.40;39.80;;;;;;10351716;28;20239;-72
2024/01/08 10:42:25;;;;;;;5.33;4.83;;;2.40;39.80;;;;;;10346282;28;20309;-71
2024/01/08 10:47:36;;;;;;;5.20;4.70;;;2.40;39.90;;;;;;10354818;28;20230;-74
2024/01/08 10:52:46;;;;;;;5.10;4.60;;;2.40;39.70;;;;;;10356696;28;20241;-74
2024/01/08 10:57:56;;;;;;;4.90;4.50;;;2.50;39.90;;;;;;10354059;28;20226;-74
2024/01/08 11:03:02;;;;;;;4.90;4.40;;;2.50;40.10;;;;;;10348007;28;20713;-74
2024/01/08 11:08:07;;;;;;;5.97;5.07;;;2.60;40.10;;;;;;10348699;28;20301;-75
2024/01/08 11:13:13;;;;;;;5.27;4.77;;;2.60;39.90;;;;;;10349120;28;20230;-74
2024/01/08 11:18:27;;;;;;;5.43;4.93;;;2.60;39.70;;;;;;10350301;28;20226;-74
2024/01/08 11:23:37;;;;;;;5.70;5.20;;;2.60;39.60;;;;;;10354052;28;20233;-74
2024/01/08 11:28:42;;;;;;;5.30;4.80;;;2.70;40.00;;;;;;10347300;28;20930;-75
2024/01/08 11:34:04;;;;;;;5.40;4.90;;;2.70;39.90;;;;;;10343591;28;20313;-77
2024/01/08 11:39:13;;;;;;;5.53;5.03;;;2.70;39.30;;;;;;10348749;28;20257;-77
2024/01/08 11:44:16;;;;;;;5.50;4.93;;;2.80;39.50;;;;;;10354044;28;20256;-76
2024/01/08 11:49:21;;;;;;;5.50;5.00;;;2.80;39.60;;;;;;10335437;28;20230;-75
2024/01/08 11:54:26;;;;;;;5.83;5.33;;;2.70;39.40;;;;;;10356190;28;20891;-75
2024/01/08 11:59:32;;;;;;;4.93;4.53;;;2.70;40.40;;;;;;10355505;28;20261;-71
2024/01/08 12:04:37;;;;;;;5.17;4.67;;;2.70;39.10;;;;;;10359710;28;20231;-75
2024/01/08 12:09:40;;;;;;;5.30;4.80;;;2.70;39.30;;;;;;10360115;28;20252;-74
2024/01/08 12:14:45;;;;;;;5.53;5.03;;;2.70;39.70;;;;;;10375505;28;20223;-76
2024/01/08 12:19:52;;;;;;;5.20;4.70;;;2.80;39.80;;;;;;10366414;28;20250;-74
2024/01/08 12:24:57;;;;;;;4.77;4.37;;;2.80;39.30;;;;;;10364264;28;20226;-76
2024/01/08 12:30:00;;;;;;;5.00;4.50;;;2.90;39.20;;;;;;10365999;28;20240;-72
2024/01/08 12:35:05;;;;;;;4.63;4.23;;;2.80;39.30;;;;;;10360664;28;20717;-75
2024/01/08 12:40:12;;;;;;;5.67;5.07;;;2.80;39.10;;;;;;10363766;28;20244;-75
2024/01/08 12:45:16;;;;;;;4.73;4.33;;;2.80;39.00;;;;;;10363869;28;20271;-75
2024/01/08 12:50:21;;;;;;;4.93;4.47;;;2.90;39.30;;;;;;10365225;28;20234;-75
2024/01/08 12:55:25;;;;;;;5.47;4.97;;;2.70;39.00;;;;;;10364789;28;20230;-77
2024/01/08 13:00:28;;;;;;;5.63;4.93;;;2.70;39.20;;;;;;10355662;28;20320;-74
2024/01/08 13:05:35;;;;;;;4.93;4.53;;;2.70;39.40;;;;;;10363565;28;20279;-75
2024/01/08 13:10:38;;;;;;;5.30;4.67;;;2.70;39.00;;;;;;10362213;28;20234;-76
2024/01/08 13:15:42;;;;;;;5.80;5.23;;;2.70;39.20;;;;;;10364462;28;20229;-73
2024/01/08 13:20:47;;;;;;;5.33;4.83;;;2.80;39.10;;;;;;10361986;28;20261;-76
2024/01/08 13:25:52;;;;;;;5.33;4.83;;;2.70;39.10;;;;;;10356513;28;20346;-73
2024/01/08 13:30:56;;;;;;;5.40;4.90;;;2.70;39.30;;;;;;10358639;28;20222;-75
2024/01/08 13:36:02;;;;;;;5.77;5.10;;;2.70;40.00;;;;;;10359959;28;20693;-78
2024/01/08 13:41:09;;;;;;;5.40;4.90;;;2.70;39.10;;;;;;10357054;28;20254;-76
2024/01/08 13:46:15;;;;;;;5.10;4.70;;;2.70;38.90;;;;;;10358899;28;20241;-75
2024/01/08 13:51:20;;;;;;;5.00;4.60;;;2.60;39.30;;;;;;10353036;28;20253;-77
2024/01/08 13:56:23;;;;;;;5.70;5.20;;;2.60;39.00;;;;;;10361417;28;20264;-79
2024/01/08 14:01:26;;;;;;;5.53;4.93;;;2.70;39.10;;;;;;10371434;28;20726;-76
2024/01/08 14:06:31;;;;;;;5.60;5.10;;;2.60;39.00;;;;;;10362433;28;20226;-76
2024/01/08 14:11:35;;;;;;;6.03;5.50;;;2.60;38.90;;;;;;10355791;28;20238;-77
2024/01/08 14:16:38;;;;;;;6.40;5.80;;;2.70;39.20;;;;;;10362859;28;20253;-75
2024/01/08 14:21:43;;;;;;;6.23;5.63;;;2.70;39.30;;;;;;10356922;28;20696;-77
2024/01/08 14:26:47;;;;;;;5.93;5.07;;;2.80;39.10;;;;;;10356472;28;20655;-77
2024/01/08 14:31:50;;;;;;;6.40;5.70;;;2.70;39.00;;;;;;10356352;28;20241;-77
2024/01/08 14:36:56;;;;;;;6.17;5.53;;;2.70;39.10;;;;;;10359908;28;20305;-77
2024/01/08 14:41:59;;;;;;;5.70;5.13;;;2.70;38.70;;;;;;10360173;28;20720;-77
2024/01/08 14:47:02;;;;;;;6.77;5.07;;;2.70;38.70;;;;;;10361671;28;20226;-76
2024/01/08 14:52:07;;;;;;;6.13;5.53;;;2.70;38.90;;;;;;10358401;28;20233;-77
2024/01/08 14:57:10;;;;;;;6.33;5.57;;;2.60;38.60;;;;;;10361294;28;20731;-77
2024/01/08 15:02:14;;;;;;;5.57;5.07;;;2.70;39.00;;;;;;10359892;28;20248;-77
2024/01/08 15:07:18;;;;;;;5.97;5.37;;;2.60;38.90;;;;;;10355736;28;20674;-76
2024/01/08 15:12:21;;;;;;;5.70;5.20;;;2.60;38.80;;;;;;10359909;28;20243;-76
2024/01/08 15:17:25;;;;;;;5.93;5.33;;;2.60;39.10;;;;;;10359282;28;20650;-78
2024/01/08 15:22:30;;;;;;;5.73;5.23;;;2.60;39.00;;;;;;10360554;28;20309;-78
2024/01/08 15:27:33;;;;;;;6.10;5.50;;;2.60;38.70;;;;;;10361467;28;20709;-78
2024/01/08 15:32:36;;;;;;;6.03;5.43;;;2.60;39.20;;;;;;10358360;28;20326;-77
2024/01/08 15:37:43;;;;;;;5.93;5.33;;;2.60;39.00;;;;;;10361910;28;20727;-78
2024/01/08 15:42:46;;;;;;;5.83;5.27;;;2.60;38.80;;;;;;10362578;28;20787;-78
2024/01/08 15:47:49;;;;;;;6.23;5.37;;;2.60;38.90;;;;;;10365983;28;20333;-78
2024/01/08 15:52:55;;;;;;;5.73;5.10;;;2.60;38.80;;;;;;10365792;28;20292;-79
2024/01/08 15:57:59;;;;;;;6.30;5.53;;;2.50;38.60;;;;;;10370172;28;20307;-78
2024/01/08 16:03:02;;;;;;;5.80;5.20;;;2.50;38.80;;;;;;10367019;28;20309;-78
2024/01/08 16:08:09;;;;;;;5.77;4.93;;;2.50;38.80;;;;;;10365602;28;20265;-78
2024/01/08 16:13:12;;;;;;;5.97;5.00;;;2.50;38.70;;;;;;10363999;28;20254;-76
2024/01/08 16:18:15;;;;;;;5.70;5.20;;;2.50;38.70;;;;;;10361420;28;20222;-78
2024/01/08 16:23:20;;;;;;;6.90;5.60;;;2.50;38.80;;;;;;10368611;28;20600;-78
2024/01/08 16:28:23;;;;;;;6.53;5.50;;;2.40;38.60;;;;;;10364372;28;20253;-79
2024/01/08 16:33:26;;;;;;;5.70;5.10;;;2.50;39.30;;;;;;10364781;28;20261;-78
2024/01/08 16:38:31;;;;;;;5.90;5.30;;;2.50;39.20;;;;;;10365569;28;20234;-77
2024/01/08 16:43:35;;;;;;;8.47;6.97;;;2.70;38.90;;;;;;10361954;28;20249;-77
2024/01/08 16:48:38;;;;;;;5.97;5.37;;;2.60;38.80;;;;;;10364340;28;20235;-77
2024/01/08 16:53:43;;;;;;;6.70;5.90;;;2.50;39.90;;;;;;10361679;28;20318;-77
2024/01/08 16:58:48;;;;;;;6.77;5.80;;;2.60;39.30;;;;;;10364050;28;20330;-77
2024/01/08 17:03:52;;;;;;;5.97;5.33;;;2.60;39.60;;;;;;10359473;28;20232;-76
2024/01/08 17:09:01;;;;;;;6.67;6.07;;;2.70;39.60;;;;;;10348136;28;20257;-76
2024/01/08 17:14:05;;;;;;;6.77;5.83;;;2.60;39.20;;;;;;10364612;28;20222;-80
2024/01/08 17:19:08;;;;;;;7.37;6.53;;;2.60;39.00;;;;;;10372192;28;20234;-81
2024/01/08 17:24:13;;;;;;;6.60;5.90;;;2.60;38.70;;;;;;10377235;28;20467;-81
2024/01/08 17:29:16;;;;;;;8.03;6.57;;;2.50;38.40;;;;;;10371657;28;20257;-79
2024/01/08 17:34:20;;;;;;;6.57;5.97;;;2.50;38.20;;;;;;10363250;28;20222;-78
2024/01/08 17:39:27;;;;;;;8.33;6.60;;;2.50;38.10;;;;;;10366715;28;20243;-78
2024/01/08 17:44:30;;;;;;;8.33;6.80;;;2.50;38.20;;;;;;10364636;28;20249;-78
2024/01/08 17:49:33;;;;;;;7.10;6.40;;;2.40;38.30;;;;;;10364188;28;20250;-78
2024/01/08 17:54:38;;;;;;;8.53;7.10;;;2.30;38.30;;;;;;10363445;28;20341;-78
2024/01/08 17:59:42;;;;;;;8.23;7.30;;;2.20;38.10;;;;;;10363764;28;20234;-78
2024/01/08 18:04:46;;;;;;;8.60;7.50;;;2.20;38.30;;;;;;10366179;28;20279;-79
2024/01/08 18:09:51;;;;;;;8.43;7.40;;;2.20;38.50;;;;;;10362101;28;20297;-77
2024/01/08 18:14:54;;;;;;;11.63;8.63;;;2.20;38.20;;;;;;10358204;28;21656;-76
2024/01/08 18:19:57;;;;;;;9.10;7.77;;;2.20;38.30;;;;;;10355066;28;20230;-76
2024/01/08 18:25:02;;;;;;;7.43;6.40;;;2.20;38.30;;;;;;10357079;28;20230;-77
2024/01/08 18:30:07;;;;;;;8.90;7.83;;;2.10;38.10;;;;;;10357474;28;20230;-76
2024/01/08 18:35:10;;;;;;;8.33;6.90;;;2.10;38.10;;;;;;10359650;28;20238;-81
2024/01/08 18:40:15;;;;;;;7.20;5.93;;;2.00;38.10;;;;;;10359184;28;20234;-80
2024/01/08 18:45:20;;;;;;;7.57;6.23;;;2.00;37.90;;;;;;10361973;28;20272;-80
2024/01/08 18:50:23;;;;;;;8.47;6.53;;;2.10;38.00;;;;;;10359703;28;20282;-80
2024/01/08 18:55:28;;;;;;;8.57;7.67;;;2.00;37.90;;;;;;10363857;28;20236;-80
2024/01/08 19:00:36;;;;;;;9.03;7.53;;;2.00;37.70;;;;;;10356767;28;20657;-80
2024/01/08 19:05:39;;;;;;;8.60;7.07;;;1.90;37.90;;;;;;10362934;28;20241;-80
2024/01/08 19:10:45;;;;;;;7.60;6.60;;;1.90;37.90;;;;;;10364938;28;20374;-81
2024/01/08 19:15:49;;;;;;;6.83;6.13;;;1.80;37.70;;;;;;10366081;28;20230;-81
2024/01/08 19:20:52;;;;;;;7.77;6.40;;;1.80;37.80;;;;;;10365673;28;20272;-79
2024/01/08 19:25:59;;;;;;;8.03;6.97;;;1.90;37.80;;;;;;10366969;28;20287;-81
2024/01/08 19:31:05;;;;;;;7.47;6.70;;;1.80;37.70;;;;;;10366237;28;20329;-81
2024/01/08 19:36:09;;;;;;;8.37;6.97;;;1.70;37.60;;;;;;10361287;28;20262;-81
2024/01/08 19:41:13;;;;;;;8.67;7.27;;;1.60;38.10;;;;;;10369813;28;20234;-81
2024/01/08 19:46:17;;;;;;;8.83;7.60;;;1.60;37.20;;;;;;10365792;28;20737;-81
2024/01/08 19:51:21;;;;;;;8.90;6.80;;;1.50;37.10;;;;;;10362482;28;20879;-80
2024/01/08 19:56:26;;;;;;;8.83;7.27;;;1.40;37.20;;;;;;10363257;28;20309;-80
2024/01/08 20:01:29;;;;;;;8.57;7.23;;;1.40;37.40;;;;;;10361215;28;20230;-81
2024/01/08 20:06:32;;;;;;;7.97;6.90;;;1.30;37.40;;;;;;10361754;28;20280;-80
2024/01/08 20:11:38;;;;;;;10.07;7.57;;;1.30;37.40;;;;;;10361084;28;20293;-81
2024/01/08 20:16:42;;;;;;;9.83;7.50;;;1.30;37.20;;;;;;10364373;28;20721;-81
2024/01/08 20:21:45;;;;;;;10.67;7.70;;;1.20;37.20;;;;;;10367035;28;20249;-80
2024/01/08 20:26:50;;;;;;;9.33;7.67;;;1.20;37.90;;;;;;10361286;28;20231;-80
2024/01/08 20:31:53;;;;;;;8.83;7.43;;;1.20;36.90;;;;;;10364364;28;20257;-80
2024/01/08 20:36:56;;;;;;;10.47;7.90;;;1.10;37.10;;;;;;10374556;28;20227;-81
2024/01/08 20:42:01;;;;;;;9.40;8.03;;;1.10;37.20;;;;;;10371939;28;20293;-80
2024/01/08 20:47:04;;;;;;;11.33;7.83;;;1.10;37.20;;;;;;10369853;28;20226;-80
2024/01/08 20:52:07;;;;;;;9.90;7.60;;;1.00;37.10;;;;;;10371099;28;20261;-80
2024/01/08 20:57:12;;;;;;;9.57;7.60;;;1.00;37.30;;;;;;10373541;28;20222;-81
2024/01/08 21:02:15;;;;;;;8.73;7.63;;;1.00;37.30;;;;;;10369269;28;20256;-80
2024/01/08 21:07:19;;;;;;;9.90;7.37;;;1.00;37.30;;;;;;10370580;28;20222;-81
2024/01/08 21:12:23;;;;;;;9.07;7.70;;;1.00;37.30;;;;;;10366653;28;20318;-79
2024/01/08 21:17:27;;;;;;;9.70;7.83;;;0.90;37.20;;;;;;10363183;28;20313;-78
2024/01/08 21:22:30;;;;;;;10.00;8.30;;;1.00;37.40;;;;;;10368810;28;20226;-79
2024/01/08 21:27:34;;;;;;;11.87;8.33;;;1.00;37.20;;;;;;10365935;28;20329;-80
2024/01/08 21:32:38;;;;;;;13.07;8.63;;;0.90;36.80;;;;;;10360632;28;20240;-79
2024/01/08 21:37:42;;;;;;;9.57;7.63;;;0.90;36.80;;;;;;10357947;28;20219;-80
2024/01/08 21:42:47;;;;;;;12.47;8.80;;;0.90;37.00;;;;;;10366542;28;20290;-80
2024/01/08 21:47:50;;;;;;;10.60;8.80;;;0.80;36.70;;;;;;10356814;28;20233;-79
2024/01/08 21:52:53;;;;;;;9.87;7.60;;;0.80;36.60;;;;;;10366939;28;20300;-80
2024/01/08 21:57:58;;;;;;;10.33;8.73;;;0.80;36.80;;;;;;10368944;28;20309;-79
2024/01/08 22:03:01;;;;;;;11.40;8.57;;;0.80;37.10;;;;;;10366689;28;20313;-79
2024/01/08 22:08:05;;;;;;;11.33;9.10;;;0.70;36.40;;;;;;10370000;28;20705;-79
2024/01/08 22:13:10;;;;;;;11.23;8.57;;;0.70;36.50;;;;;;10361966;28;20222;-80
2024/01/08 22:18:13;;;;;;;10.93;8.80;;;0.60;36.10;;;;;;10365022;28;20229;-81
2024/01/08 22:23:16;;;;;;;10.63;8.40;;;0.50;36.20;;;;;;10366131;28;20294;-79
2024/01/08 22:28:21;;;;;;;9.80;7.80;;;0.50;36.50;;;;;;10365333;28;20230;-80
2024/01/08 22:33:24;;;;;;;11.87;8.90;;;0.40;36.10;;;;;;10362464;28;20266;-80
2024/01/08 22:38:28;;;;;;;10.73;8.23;;;0.30;36.00;;;;;;10363062;28;20596;-80
2024/01/08 22:43:34;;;;;;;11.20;8.33;;;0.30;36.30;;;;;;10361662;28;21323;-79
2024/01/08 22:48:38;;;;;;;11.40;8.27;;;0.20;36.10;;;;;;10369888;28;20260;-80
2024/01/08 22:53:41;;;;;;;9.80;8.13;;;0.20;36.30;;;;;;10364788;28;20242;-80
2024/01/08 22:58:46;;;;;;;9.87;7.97;;;0.20;36.40;;;;;;10362807;28;20280;-79
2024/01/08 23:03:49;;;;;;;12.13;8.70;;;0.10;36.40;;;;;;10370294;28;20301;-80
2024/01/08 23:08:52;;;;;;;10.43;8.30;;;0.10;36.50;;;;;;10362381;28;20230;-78
2024/01/08 23:13:57;;;;;;;10.40;8.10;;;0.10;36.60;;;;;;10363820;28;20621;-79
2024/01/08 23:19:00;;;;;;;12.50;9.00;;;0.10;36.50;;;;;;10357355;28;20229;-79
2024/01/08 23:24:05;;;;;;;12.17;9.13;;;0.10;36.30;;;;;;10357136;28;20321;-78
2024/01/08 23:29:10;;;;;;;11.47;8.03;;;0.10;36.10;;;;;;10359636;28;20234;-80
2024/01/08 23:34:13;;;;;;;11.73;8.80;;;0.10;36.30;;;;;;10359299;28;20222;-78
2024/01/08 23:39:24;;;;;;;10.77;8.47;;;0.00;36.30;;;;;;10360264;28;20778;-78
2024/01/08 23:44:28;;;;;;;10.43;8.40;;;0.00;36.40;;;;;;10360948;28;20232;-78
2024/01/08 23:49:31;;;;;;;12.83;9.00;;;-0.10;36.10;;;;;;10359803;28;20238;-78
2024/01/08 23:54:34;;;;;;;11.00;8.80;;;-0.10;36.20;;;;;;10362768;28;20233;-78
2024/01/08 23:59:39;;;;;;;10.90;8.13;;;-0.20;36.20;;;;;;10360832;28;20305;-78
